West Miami, Florida
Current Conditions -  °F | °C
As of 5:53 AM on Friday 19 Dec 2014 (Local Time) from KMIA Reporting Station
Few Clouds Few Clouds  
Wind Chill: 63°   Ceiling: Unl
Heat Index: 63°   Visibility: 10mi
Dew Point: 52°   Wind: 3mph
Humidity: 67%   Direction: 360°N
Pressure: 30.08"   Gusts: NA
Location:  25.7365°N, 80.3112°W
Report Text: KMIA 191053Z 36003KT 10SM FEW030 17/11 A3008 RMK AO2 SLP184 T01720111
Loading
Personal Weather Stations






























Interactive Weather Map New forecast layout! Learn more

10-Day Weather Forecast

Advertisements
Track Severe Weather on mobile